Time;durP1;ratioP1;P1;durP2;ratioP2;P2;SDS_P1;SDS_P2;PMS_P1;PMS_P2;Temp;Humidity;BMP_temperature;BMP_pressure;BME280_temperature;BME280_humidity;BME280_pressure;Samples;Min_cycle;Max_cycle;Signal;HPM_P1;HPM_P2
2023/05/23 00:00:57;;;;;;;8.18;4.50;;;;;;;11.35;100.00;92981.50;5053629;28;20048;-71
2023/05/23 00:03:25;;;;;;;6.57;4.32;;;;;;;11.40;100.00;92985.19;5066975;28;20048;-71
2023/05/23 00:05:52;;;;;;;7.68;4.78;;;;;;;11.41;100.00;92987.56;5066937;28;20094;-71
2023/05/23 00:08:19;;;;;;;9.02;5.10;;;;;;;11.36;100.00;92982.28;5061520;28;20566;-71
2023/05/23 00:10:46;;;;;;;6.15;4.10;;;;;;;11.38;100.00;92982.06;5067150;28;20067;-71
2023/05/23 00:13:13;;;;;;;6.88;4.93;;;;;;;11.33;100.00;92975.00;5066742;28;20041;-71
2023/05/23 00:15:40;;;;;;;7.32;4.38;;;;;;;11.30;100.00;92978.03;5066085;28;20048;-71
2023/05/23 00:18:09;;;;;;;6.15;4.43;;;;;;;11.25;100.00;92965.03;5066373;28;20088;-71
2023/05/23 00:20:40;;;;;;;8.43;3.90;;;;;;;11.27;100.00;92965.59;5067172;28;20053;-71
2023/05/23 00:23:07;;;;;;;6.95;3.75;;;;;;;11.24;100.00;92966.81;5058960;28;20070;-71
2023/05/23 00:25:34;;;;;;;6.47;3.55;;;;;;;11.12;100.00;92956.50;5067354;28;20052;-71
2023/05/23 00:28:01;;;;;;;8.20;3.97;;;;;;;11.16;100.00;92960.19;5070465;28;20051;-71
2023/05/23 00:30:29;;;;;;;7.40;3.97;;;;;;;11.05;100.00;92958.38;5070074;28;20098;-71
2023/05/23 00:32:57;;;;;;;5.45;3.17;;;;;;;11.01;100.00;92965.75;5070613;28;20066;-71
2023/05/23 00:35:25;;;;;;;6.40;3.75;;;;;;;10.98;100.00;92958.47;5070442;28;20449;-71
2023/05/23 00:37:53;;;;;;;5.97;3.63;;;;;;;10.88;100.00;92969.25;5058003;28;20053;-71
2023/05/23 00:40:19;;;;;;;7.45;4.28;;;;;;;10.85;100.00;92971.47;5070300;28;20044;-71
2023/05/23 00:42:48;;;;;;;5.18;3.50;;;;;;;10.75;100.00;92974.56;5070333;28;20055;-71
2023/05/23 00:45:15;;;;;;;7.85;3.88;;;;;;;10.73;100.00;92972.22;5056373;28;20044;-71
2023/05/23 00:47:42;;;;;;;8.90;3.95;;;;;;;10.74;100.00;92965.31;5070113;28;20126;-71
2023/05/23 00:50:13;;;;;;;7.82;4.28;;;;;;;10.72;100.00;92968.06;5069959;28;20408;-71
2023/05/23 00:52:40;;;;;;;6.70;4.13;;;;;;;10.69;100.00;92966.72;5070444;28;20052;-71
2023/05/23 00:55:10;;;;;;;6.40;3.78;;;;;;;10.69;100.00;92966.72;5070075;28;20053;-72
2023/05/23 00:57:39;;;;;;;6.15;4.20;;;;;;;10.65;100.00;92975.09;5069938;28;20270;-71
2023/05/23 01:00:09;;;;;;;6.93;3.50;;;;;;;10.67;100.00;92973.88;5070236;28;20136;-71
2023/05/23 01:02:42;;;;;;;6.55;4.05;;;;;;;10.61;100.00;92976.50;5070163;28;20131;-71
2023/05/23 01:05:10;;;;;;;5.97;4.05;;;;;;;10.55;100.00;92978.13;5064662;28;20493;-72
2023/05/23 01:07:36;;;;;;;7.75;4.07;;;;;;;10.31;100.00;92952.31;5064677;28;20263;-71
2023/05/23 01:10:04;;;;;;;9.43;3.97;;;;;;;10.42;100.00;92971.34;5063974;28;20044;-71
2023/05/23 01:12:45;;;;;;;8.77;4.20;;;;;;;10.39;100.00;92970.00;5070081;28;20110;-71
2023/05/23 01:15:15;;;;;;;7.55;4.05;;;;;;;10.36;100.00;92972.19;5069473;28;20052;-71
2023/05/23 01:17:47;;;;;;;8.77;4.40;;;;;;;10.35;100.00;92966.28;5069582;28;20064;-71
2023/05/23 01:20:19;;;;;;;8.98;4.38;;;;;;;10.35;100.00;92971.44;5069042;28;20074;-71
2023/05/23 01:23:14;;;;;;;7.03;4.50;;;;;;;10.28;100.00;92956.06;5069399;28;20055;-71
2023/05/23 01:25:58;;;;;;;9.23;4.37;;;;;;;10.36;100.00;92969.63;5068203;28;20084;-71
2023/05/23 01:28:29;;;;;;;7.90;3.90;;;;;;;10.28;100.00;92963.78;5051936;28;20045;-71
2023/05/23 01:30:58;;;;;;;6.05;3.60;;;;;;;10.32;100.00;92978.78;5059534;28;20055;-71
2023/05/23 01:33:29;;;;;;;5.57;3.70;;;;;;;10.24;100.00;92961.88;5069033;28;20053;-71
2023/05/23 01:35:58;;;;;;;6.57;4.32;;;;;;;10.26;100.00;92973.50;5058564;28;20485;-71
2023/05/23 01:38:26;;;;;;;6.60;3.92;;;;;;;10.19;100.00;92971.97;5064704;28;20064;-71
2023/05/23 01:40:54;;;;;;;7.22;4.00;;;;;;;10.12;100.00;92966.91;5069339;28;20497;-71
2023/05/23 01:43:21;;;;;;;7.18;4.10;;;;;;;10.07;100.00;92967.56;5068826;28;20051;-71
2023/05/23 01:45:50;;;;;;;10.77;4.45;;;;;;;10.03;100.00;92963.84;5068591;28;20516;-71
2023/05/23 01:48:18;;;;;;;6.18;4.65;;;;;;;10.02;100.00;92963.06;5069230;28;20457;-71
2023/05/23 01:50:45;;;;;;;9.65;5.55;;;;;;;10.00;100.00;92954.78;5069247;28;20041;-71
2023/05/23 01:53:13;;;;;;;7.70;4.32;;;;;;;9.88;100.00;92938.50;5069143;28;20064;-71
2023/05/23 01:55:41;;;;;;;8.18;4.63;;;;;;;9.94;100.00;92945.38;5060662;28;20052;-71
2023/05/23 01:58:08;;;;;;;9.27;4.32;;;;;;;9.87;100.00;92945.41;5049045;28;20059;-71
2023/05/23 02:00:35;;;;;;;6.90;4.68;;;;;;;9.83;100.00;92951.19;5048690;28;20040;-71
2023/05/23 02:03:04;;;;;;;8.55;4.47;;;;;;;9.80;100.00;92949.03;5048941;28;20080;-71
2023/05/23 02:05:31;;;;;;;8.90;5.32;;;;;;;9.79;100.00;92950.84;5049181;28;20040;-71
2023/05/23 02:07:58;;;;;;;8.88;4.93;;;;;;;9.78;100.00;92951.84;5049184;28;20053;-71
2023/05/23 02:10:25;;;;;;;10.73;5.90;;;;;;;9.75;100.00;92949.69;5048865;28;20082;-71
2023/05/23 02:12:51;;;;;;;9.57;4.85;;;;;;;9.72;100.00;92953.44;5048951;28;20053;-71
2023/05/23 02:15:18;;;;;;;8.60;4.50;;;;;;;9.71;100.00;92951.88;5048503;28;20413;-71
2023/05/23 02:17:47;;;;;;;8.98;4.90;;;;;;;9.71;100.00;92951.09;5049027;28;20057;-71
2023/05/23 02:20:17;;;;;;;9.07;5.20;;;;;;;9.68;100.00;92947.16;5063345;28;20044;-71
2023/05/23 02:22:44;;;;;;;9.93;5.85;;;;;;;9.66;100.00;92954.28;5068639;28;20147;-71
2023/05/23 02:25:11;;;;;;;10.02;5.25;;;;;;;9.61;100.00;92954.94;5068621;28;20550;-71
2023/05/23 02:27:38;;;;;;;9.77;5.70;;;;;;;9.61;100.00;92952.38;5068688;28;20052;-71
2023/05/23 02:30:06;;;;;;;9.45;5.90;;;;;;;9.62;100.00;92953.94;5068261;28;20044;-71
2023/05/23 02:32:33;;;;;;;8.07;4.97;;;;;;;9.52;100.00;92940.00;5061094;28;20045;-74
2023/05/23 02:35:00;;;;;;;8.05;5.22;;;;;;;9.61;100.00;92956.69;5062824;28;20060;-71
2023/05/23 02:37:28;;;;;;;10.38;5.30;;;;;;;9.57;100.00;92953.78;5068397;28;20126;-71
2023/05/23 02:39:56;;;;;;;7.93;4.78;;;;;;;9.54;100.00;92949.03;5068063;28;20106;-71
2023/05/23 02:42:22;;;;;;;10.70;4.43;;;;;;;9.45;100.00;92940.06;5068367;28;20044;-71
2023/05/23 02:44:49;;;;;;;7.38;4.85;;;;;;;9.45;100.00;92943.41;5067944;28;20056;-71
2023/05/23 02:47:16;;;;;;;9.82;5.38;;;;;;;9.40;100.00;92937.34;5068126;28;20057;-71
2023/05/23 02:49:43;;;;;;;10.00;5.38;;;;;;;9.19;100.00;92909.28;5068168;28;20072;-71
2023/05/23 02:52:10;;;;;;;8.68;5.10;;;;;;;9.28;100.00;92930.31;5067577;28;20409;-71
2023/05/23 02:54:38;;;;;;;8.70;4.95;;;;;;;9.34;100.00;92938.94;5068096;28;20776;-71
2023/05/23 02:57:05;;;;;;;8.38;4.88;;;;;;;9.31;100.00;92939.38;5067506;28;20116;-71
2023/05/23 02:59:32;;;;;;;10.57;4.93;;;;;;;9.32;100.00;92941.75;5067276;28;20063;-71
2023/05/23 03:01:58;;;;;;;11.75;5.50;;;;;;;9.27;100.00;92936.44;5067902;28;20123;-71
2023/05/23 03:04:26;;;;;;;8.07;5.05;;;;;;;9.21;100.00;92939.81;5067571;28;20055;-71
2023/05/23 03:06:53;;;;;;;10.98;5.35;;;;;;;9.17;100.00;92943.81;5067664;28;20067;-71
2023/05/23 03:09:20;;;;;;;12.07;5.78;;;;;;;9.18;100.00;92947.94;5067759;28;20064;-71
2023/05/23 03:11:48;;;;;;;8.68;5.60;;;;;;;8.92;100.00;92909.47;5067545;28;20479;-71
2023/05/23 03:14:15;;;;;;;13.27;5.90;;;;;;;9.05;100.00;92941.91;5067560;28;20052;-71
2023/05/23 03:16:42;;;;;;;11.95;5.57;;;;;;;9.03;100.00;92940.53;5068116;28;20094;-71
2023/05/23 03:19:08;;;;;;;10.95;6.35;;;;;;;8.98;100.00;92953.94;5067541;28;20049;-71
2023/05/23 03:21:35;;;;;;;13.57;6.70;;;;;;;8.98;100.00;92938.56;5067625;28;20041;-71
2023/05/23 03:24:02;;;;;;;11.70;7.13;;;;;;;8.98;100.00;92941.13;5067766;28;20593;-71
2023/05/23 03:26:29;;;;;;;13.20;9.32;;;;;;;8.75;100.00;92942.44;5067432;28;20041;-71
2023/05/23 03:28:57;;;;;;;15.60;8.70;;;;;;;8.86;100.00;92945.34;5067702;28;20051;-71
2023/05/23 03:31:24;;;;;;;18.33;9.55;;;;;;;8.86;100.00;92943.59;5067408;28;20090;-71
2023/05/23 03:33:52;;;;;;;26.58;10.57;;;;;;;8.94;100.00;92952.81;5067548;28;20099;-71
2023/05/23 03:36:20;;;;;;;18.88;9.88;;;;;;;9.01;100.00;92945.06;5067537;28;20055;-71
2023/05/23 03:38:47;;;;;;;21.33;9.30;;;;;;;9.09;100.00;92952.53;5067884;28;20152;-71
2023/05/23 03:41:14;;;;;;;20.60;9.05;;;;;;;9.17;100.00;92951.50;5067492;28;20041;-71
2023/05/23 03:43:40;;;;;;;13.65;6.88;;;;;;;9.17;100.00;92956.63;5067098;28;20048;-71
2023/05/23 03:46:09;;;;;;;14.63;7.22;;;;;;;9.20;100.00;92959.53;5067557;28;20055;-71
2023/05/23 03:48:35;;;;;;;20.85;8.10;;;;;;;9.14;100.00;92949.31;5067188;28;20610;-71
2023/05/23 03:51:02;;;;;;;16.55;6.53;;;;;;;9.28;100.00;92965.41;5067431;28;20979;-71
2023/05/23 03:53:29;;;;;;;24.45;9.23;;;;;;;9.31;100.00;92965.78;5067663;28;20413;-71
2023/05/23 03:55:56;;;;;;;14.88;6.80;;;;;;;9.36;100.00;92962.59;5071312;28;20107;-71
2023/05/23 03:58:22;;;;;;;11.27;6.40;;;;;;;9.38;100.00;92965.75;5071327;28;20049;-71
2023/05/23 04:00:49;;;;;;;14.60;6.53;;;;;;;9.43;100.00;92965.91;5070716;28;20524;-71
2023/05/23 04:03:17;;;;;;;14.18;7.03;;;;;;;9.44;100.00;92962.34;5071575;28;20048;-71
2023/05/23 04:05:44;;;;;;;10.82;6.25;;;;;;;9.49;100.00;92969.41;5071238;28;20048;-71
2023/05/23 04:08:11;;;;;;;12.10;7.20;;;;;;;9.53;100.00;92962.09;5071640;28;20041;-71
2023/05/23 04:10:38;;;;;;;13.38;7.18;;;;;;;9.59;100.00;92966.38;5071480;28;20052;-71
2023/05/23 04:13:05;;;;;;;11.73;7.45;;;;;;;9.63;100.00;92967.53;5071098;28;20056;-71
2023/05/23 04:15:34;;;;;;;14.38;7.65;;;;;;;9.66;100.00;92972.25;5071250;28;20049;-71
2023/05/23 04:18:01;;;;;;;11.10;6.72;;;;;;;9.73;100.00;92965.25;5071519;28;20052;-71
2023/05/23 04:20:30;;;;;;;12.27;7.15;;;;;;;9.80;100.00;92967.78;5071396;28;20435;-71
2023/05/23 04:22:56;;;;;;;10.98;6.13;;;;;;;9.88;100.00;92966.75;5071530;28;20061;-71
2023/05/23 04:25:23;;;;;;;18.02;7.75;;;;;;;9.96;100.00;92963.88;5071247;28;20045;-71
2023/05/23 04:27:50;;;;;;;12.02;6.95;;;;;;;10.04;100.00;92970.53;5071510;28;20044;-71
2023/05/23 04:30:17;;;;;;;11.70;6.28;;;;;;;10.13;100.00;92964.13;5070935;28;20473;-71
2023/05/23 04:32:44;;;;;;;9.68;5.80;;;;;;;10.22;100.00;92971.53;5071167;28;20044;-71
2023/05/23 04:35:11;;;;;;;13.23;6.90;;;;;;;10.29;100.00;92983.31;5071202;28;20132;-71
2023/05/23 04:37:41;;;;;;;8.80;5.80;;;;;;;10.34;100.00;92974.19;5070995;28;20052;-72
2023/05/23 04:40:09;;;;;;;12.02;6.97;;;;;;;10.38;100.00;92962.50;5071124;28;20048;-71
2023/05/23 04:42:36;;;;;;;11.65;6.28;;;;;;;10.54;100.00;92969.66;5070846;28;20490;-71
2023/05/23 04:45:02;;;;;;;14.27;6.20;;;;;;;10.63;100.00;92971.94;5070827;28;20546;-71
2023/05/23 04:47:33;;;;;;;15.73;6.47;;;;;;;10.70;100.00;92977.78;5071153;28;20127;-71
2023/05/23 04:50:01;;;;;;;16.00;7.15;;;;;;;10.78;100.00;92974.91;5071003;28;20171;-71
2023/05/23 04:52:28;;;;;;;10.50;6.40;;;;;;;10.88;100.00;92983.91;5071063;28;20409;-71
2023/05/23 04:54:56;;;;;;;16.98;7.47;;;;;;;10.95;100.00;92982.03;5068150;28;20045;-71
2023/05/23 04:57:23;;;;;;;13.38;7.00;;;;;;;11.05;100.00;92981.50;5066528;28;20045;-71
2023/05/23 04:59:50;;;;;;;16.85;7.65;;;;;;;11.12;100.00;92971.13;5066560;28;20493;-72
2023/05/23 05:02:17;;;;;;;16.30;8.68;;;;;;;11.25;100.00;92975.31;5066870;28;21105;-72
2023/05/23 05:04:44;;;;;;;18.60;8.32;;;;;;;11.31;100.00;92972.66;5066442;28;20045;-72
2023/05/23 05:07:11;;;;;;;16.55;7.85;;;;;;;11.42;100.00;92975.47;5067106;28;20448;-71
2023/05/23 05:09:37;;;;;;;19.73;7.85;;;;;;;11.47;100.00;92975.59;5063228;28;20800;-71
2023/05/23 05:12:06;;;;;;;16.10;7.13;;;;;;;11.59;100.00;92976.41;5066148;28;20048;-72
2023/05/23 05:14:33;;;;;;;14.43;6.93;;;;;;;11.72;100.00;92977.22;5069802;28;20102;-71
2023/05/23 05:17:01;;;;;;;18.05;8.38;;;;;;;11.77;100.00;92977.34;5069861;28;20057;-71
2023/05/23 05:19:28;;;;;;;18.50;9.30;;;;;;;11.96;100.00;92972.06;5069717;28;20075;-71
2023/05/23 05:21:56;;;;;;;18.98;8.50;;;;;;;11.97;100.00;92971.84;5069896;28;20049;-71
2023/05/23 05:24:23;;;;;;;30.88;14.15;;;;;;;12.07;100.00;92975.69;5068911;28;20048;-72
2023/05/23 05:26:50;;;;;;;19.48;9.60;;;;;;;12.20;100.00;92975.47;5070218;28;20098;-71
2023/05/23 05:29:18;;;;;;;21.33;10.27;;;;;;;12.16;100.00;92972.56;5069501;28;20052;-71
2023/05/23 05:31:45;;;;;;;23.83;10.18;;;;;;;12.25;100.00;92964.47;5069477;28;20050;-71
2023/05/23 05:34:12;;;;;;;28.85;10.07;;;;;;;12.21;100.00;92969.28;5069828;28;20064;-71
2023/05/23 05:36:44;;;;;;;28.33;11.18;;;;;;;12.28;100.00;92969.19;5069430;28;20056;-71
2023/05/23 05:39:12;;;;;;;28.08;10.60;;;;;;;12.46;100.00;92973.41;5069118;28;20040;-71
2023/05/23 05:41:39;;;;;;;29.73;11.13;;;;;;;12.64;100.00;92972.47;5070052;28;20052;-72
2023/05/23 05:44:05;;;;;;;28.17;11.27;;;;;;;12.84;100.00;92973.88;5069865;28;20404;-72
2023/05/23 05:46:34;;;;;;;27.80;10.30;;;;;;;13.07;100.00;92987.69;5069696;28;20090;-72
2023/05/23 05:49:00;;;;;;;26.75;10.70;;;;;;;13.33;100.00;92983.00;5069584;28;20044;-72
2023/05/23 05:51:28;;;;;;;25.42;9.73;;;;;;;13.47;100.00;92980.94;5069480;28;20548;-72
2023/05/23 05:53:54;;;;;;;29.70;10.18;;;;;;;13.68;100.00;92986.41;5068960;28;20045;-72
2023/05/23 05:56:21;;;;;;;27.90;11.18;;;;;;;13.89;100.00;92990.13;5069687;28;20052;-71
2023/05/23 05:58:48;;;;;;;29.13;11.20;;;;;;;14.23;100.00;92992.66;5069112;28;20062;-71
2023/05/23 06:01:16;;;;;;;29.52;10.93;;;;;;;14.60;100.00;92987.94;5069252;28;20056;-72
2023/05/23 06:03:44;;;;;;;26.83;10.48;;;;;;;14.91;100.00;92996.88;5068654;28;20465;-72
2023/05/23 06:06:11;;;;;;;33.35;10.60;;;;;;;15.26;100.00;92986.38;5068553;28;20075;-72
2023/05/23 06:08:38;;;;;;;28.80;10.60;;;;;;;15.60;100.00;92988.78;5068834;28;20048;-72
2023/05/23 06:11:05;;;;;;;24.60;8.45;;;;;;;15.88;100.00;92990.28;5069428;28;20044;-72
2023/05/23 06:13:32;;;;;;;21.58;8.55;;;;;;;16.02;100.00;92992.47;5068608;28;20044;-72
2023/05/23 06:15:59;;;;;;;30.30;9.60;;;;;;;16.14;100.00;92985.31;5068987;28;20041;-72
2023/05/23 06:18:25;;;;;;;33.45;10.98;;;;;;;16.14;100.00;92985.31;5068452;28;20049;-71
2023/05/23 06:20:53;;;;;;;32.53;11.35;;;;;;;16.31;100.00;92986.97;5068761;28;20106;-72
2023/05/23 06:23:20;;;;;;;37.72;11.52;;;;;;;16.42;100.00;92985.19;5068289;28;20382;-72
2023/05/23 06:25:47;;;;;;;37.08;11.18;;;;;;;16.63;100.00;92988.69;5068599;28;20052;-72
2023/05/23 06:28:14;;;;;;;38.60;10.00;;;;;;;16.56;100.00;92994.09;5068667;28;20044;-72
2023/05/23 06:30:41;;;;;;;40.35;10.88;;;;;;;16.39;100.00;92989.06;5068116;28;20508;-72
2023/05/23 06:33:08;;;;;;;32.40;10.90;;;;;;;16.57;100.00;92984.50;5042302;28;20056;-71
2023/05/23 06:35:34;;;;;;;45.85;12.50;;;;;;;16.48;100.00;92986.78;5068304;28;20048;-71
2023/05/23 06:38:03;;;;;;;39.85;10.65;;;;;;;16.78;100.00;92987.19;5068405;28;20053;-72
2023/05/23 06:40:29;;;;;;;28.67;8.90;;;;;;;16.96;100.00;92978.94;5067843;28;20044;-72
2023/05/23 06:42:56;;;;;;;23.52;7.90;;;;;;;17.32;100.00;92987.91;5068403;28;20079;-72
2023/05/23 06:45:23;;;;;;;21.92;8.02;;;;;;;17.38;100.00;92980.88;5067637;28;20505;-72
2023/05/23 06:47:50;;;;;;;19.48;7.05;;;;;;;17.55;100.00;92988.44;5068296;28;20094;-72
2023/05/23 06:50:18;;;;;;;21.75;7.47;;;;;;;17.58;98.94;92956.75;5067986;28;20095;-72
2023/05/23 06:52:45;;;;;;;30.77;8.80;;;;;;;17.52;100.00;92979.34;5068352;28;20071;-72
2023/05/23 06:55:17;;;;;;;30.15;8.90;;;;;;;17.32;100.00;92975.69;5067861;28;20041;-72
2023/05/23 06:57:44;;;;;;;25.02;9.30;;;;;;;17.49;100.00;92970.25;5067766;28;20127;-72
2023/05/23 07:00:12;;;;;;;23.15;8.02;;;;;;;17.81;100.00;92971.03;5055347;28;20048;-72
2023/05/23 07:02:39;;;;;;;22.15;8.02;;;;;;;17.86;99.73;92971.03;5067855;28;20045;-72
2023/05/23 07:05:06;;;;;;;25.45;8.23;;;;;;;18.00;98.07;92971.28;5067720;28;20048;-72
2023/05/23 07:07:33;;;;;;;35.22;8.40;;;;;;;18.26;99.86;92967.91;5060120;28;20041;-72
2023/05/23 07:10:00;;;;;;;22.55;6.28;;;;;;;18.36;98.42;92962.69;5056476;28;20097;-72
2023/05/23 07:12:28;;;;;;;11.77;5.47;;;;;;;18.08;95.07;92964.81;5067320;28;20417;-72
2023/05/23 07:14:55;;;;;;;10.65;5.63;;;;;;;18.12;95.26;92962.47;5067935;28;20071;-72
2023/05/23 07:17:22;;;;;;;12.00;5.47;;;;;;;18.33;93.96;92972.84;5067340;28;20049;-72
2023/05/23 07:19:49;;;;;;;21.17;6.88;;;;;;;18.20;96.27;92958.56;5067709;28;20515;-72
2023/05/23 07:22:16;;;;;;;9.05;4.10;;;;;;;17.93;96.45;92960.41;5067153;28;20127;-72
2023/05/23 07:24:42;;;;;;;7.70;5.28;;;;;;;17.98;97.66;92952.59;5067237;28;20052;-72
2023/05/23 07:27:09;;;;;;;6.90;3.40;;;;;;;17.73;85.88;92961.19;5067685;28;20048;-72
2023/05/23 07:29:37;;;;;;;7.90;3.75;;;;;;;17.98;86.94;92949.22;5067828;28;20048;-72
2023/05/23 07:32:04;;;;;;;4.93;3.35;;;;;;;18.04;87.52;92948.16;5066866;28;20102;-72
2023/05/23 07:34:31;;;;;;;7.15;3.47;;;;;;;18.22;89.63;92954.66;5067406;28;20089;-72
2023/05/23 07:36:58;;;;;;;5.03;3.42;;;;;;;18.27;83.11;92948.66;5066454;28;20052;-72
2023/05/23 07:39:26;;;;;;;6.15;3.80;;;;;;;18.24;85.12;92949.19;5067080;28;20070;-72
2023/05/23 07:41:53;;;;;;;9.10;3.33;;;;;;;18.60;84.83;92954.28;5067455;28;20044;-71
2023/05/23 07:44:20;;;;;;;8.63;3.53;;;;;;;18.69;84.60;92957.09;5067327;28;20413;-72
2023/05/23 07:46:48;;;;;;;9.20;3.95;;;;;;;18.35;78.21;92957.75;5067156;28;20492;-72
2023/05/23 07:49:15;;;;;;;5.45;2.97;;;;;;;18.50;79.81;92955.09;5054496;28;20044;-72
2023/05/23 07:51:41;;;;;;;5.70;3.00;;;;;;;18.61;78.95;92958.44;5066894;28;20139;-72
2023/05/23 07:54:08;;;;;;;4.95;3.00;;;;;;;18.61;78.75;92971.44;5061476;28;20544;-72
2023/05/23 07:56:37;;;;;;;6.45;3.53;;;;;;;18.71;81.68;92957.66;5059676;28;20044;-72
2023/05/23 07:59:04;;;;;;;6.22;2.78;;;;;;;18.65;73.47;92959.47;5066614;28;20512;-72
2023/05/23 08:01:30;;;;;;;8.52;3.08;;;;;;;18.54;73.92;92968.34;5067495;28;20353;-72
2023/05/23 08:03:58;;;;;;;5.38;3.22;;;;;;;18.33;71.31;92959.84;5066520;28;20504;-72
2023/05/23 08:06:25;;;;;;;6.05;3.67;;;;;;;18.48;76.73;92961.63;5067304;28;20098;-72
2023/05/23 08:08:52;;;;;;;5.45;3.05;;;;;;;18.51;73.49;92971.50;5040938;28;20459;-72
2023/05/23 08:11:19;;;;;;;6.93;3.42;;;;;;;18.42;74.91;92958.22;5066621;28;20041;-72
2023/05/23 08:13:45;;;;;;;5.55;2.85;;;;;;;18.51;73.73;92979.31;5040870;28;20090;-72
2023/05/23 08:16:12;;;;;;;4.18;2.65;;;;;;;18.55;69.01;92977.72;5066688;28;20041;-72
2023/05/23 08:18:39;;;;;;;6.28;3.95;;;;;;;18.79;70.59;92977.13;5066404;28;20044;-72
2023/05/23 08:21:08;;;;;;;5.65;2.85;;;;;;;18.96;70.90;92968.97;5057909;28;20052;-71
2023/05/23 08:23:34;;;;;;;3.95;2.45;;;;;;;19.13;65.60;92975.69;5061655;28;20047;-71
2023/05/23 08:26:01;;;;;;;5.15;2.65;;;;;;;18.90;66.96;92973.44;5066726;28;20041;-72
2023/05/23 08:28:28;;;;;;;6.22;2.47;;;;;;;18.94;65.46;92966.63;5066687;28;21211;-72
2023/05/23 08:30:56;;;;;;;4.97;2.67;;;;;;;18.96;65.75;92971.56;5066625;28;20489;-72
2023/05/23 08:33:22;;;;;;;4.07;2.50;;;;;;;19.02;65.54;92975.72;5066234;28;20080;-72
2023/05/23 08:35:49;;;;;;;5.20;3.08;;;;;;;18.83;65.26;92967.72;5066931;28;20905;-72
2023/05/23 08:38:20;;;;;;;6.57;2.95;;;;;;;18.89;66.86;92971.84;5066310;28;20088;-72
2023/05/23 08:40:50;;;;;;;5.63;2.42;;;;;;;19.18;66.41;92968.66;5066676;28;20055;-72
2023/05/23 08:43:17;;;;;;;5.75;2.88;;;;;;;19.18;65.90;92965.25;5066653;28;20064;-72
2023/05/23 08:45:44;;;;;;;6.93;2.83;;;;;;;18.63;64.17;92968.59;5066169;28;20044;-72
2023/05/23 08:48:13;;;;;;;5.60;2.85;;;;;;;18.99;64.59;92959.84;5069754;28;20052;-72
2023/05/23 08:50:43;;;;;;;3.90;2.35;;;;;;;19.29;64.11;92960.75;5070234;28;20048;-72
2023/05/23 08:53:10;;;;;;;8.43;3.38;;;;;;;19.34;66.49;92960.72;5070248;28;20098;-72
2023/05/23 08:55:39;;;;;;;5.90;3.10;;;;;;;19.31;62.69;92956.81;5070069;28;20044;-72
2023/05/23 08:58:07;;;;;;;5.43;3.72;;;;;;;19.31;62.53;92959.44;5070686;28;20052;-72
2023/05/23 09:00:34;;;;;;;12.13;5.13;;;;;;;19.48;62.08;92958.28;5069648;28;20044;-72
2023/05/23 09:03:01;;;;;;;5.38;3.00;;;;;;;19.43;62.50;92947.91;5070120;28;20072;-72
2023/05/23 09:05:28;;;;;;;12.35;4.68;;;;;;;19.88;63.95;92942.63;5069976;28;20493;-72
2023/05/23 09:07:55;;;;;;;6.63;3.13;;;;;;;19.97;60.90;92945.44;5070138;28;20044;-72
2023/05/23 09:10:22;;;;;;;7.32;3.30;;;;;;;20.06;60.63;92943.78;5070067;28;20118;-72
2023/05/23 09:12:50;;;;;;;15.48;5.25;;;;;;;20.07;56.58;92944.56;5070147;28;20052;-72
2023/05/23 09:15:17;;;;;;;7.00;3.33;;;;;;;20.15;61.99;92944.72;5069670;28;20040;-72
2023/05/23 09:17:45;;;;;;;9.30;4.50;;;;;;;20.20;57.68;92941.31;5069849;28;20040;-72
2023/05/23 09:20:14;;;;;;;5.00;2.80;;;;;;;20.00;53.45;92927.41;5043993;28;20052;-72
2023/05/23 09:22:41;;;;;;;11.15;4.22;;;;;;;20.08;56.36;92943.53;5068929;28;20078;-72
2023/05/23 09:25:08;;;;;;;9.00;3.78;;;;;;;19.74;57.85;92939.88;5067068;28;20052;-72
2023/05/23 09:27:35;;;;;;;13.75;4.95;;;;;;;20.01;61.70;92934.16;5069302;28;20121;-72
2023/05/23 09:30:07;;;;;;;11.45;5.78;;;;;;;20.23;57.36;92937.38;5069598;28;20118;-72
2023/05/23 09:32:34;;;;;;;6.60;3.40;;;;;;;19.80;59.46;92933.56;5070057;28;20044;-72
2023/05/23 09:35:03;;;;;;;10.75;4.18;;;;;;;20.49;62.62;92924.81;5069030;28;20051;-72
2023/05/23 09:37:31;;;;;;;4.72;2.95;;;;;;;20.81;60.08;92933.06;5069740;28;20072;-72
2023/05/23 09:39:59;;;;;;;4.82;3.10;;;;;;;20.46;58.06;92927.97;5043376;28;20095;-72
2023/05/23 09:42:31;;;;;;;8.38;4.20;;;;;;;20.63;60.16;92918.91;5069586;28;20098;-72
2023/05/23 09:44:58;;;;;;;7.35;4.80;;;;;;;20.73;58.47;92931.09;5068476;28;20051;-72
2023/05/23 09:47:27;;;;;;;9.07;4.68;;;;;;;20.56;57.03;92927.88;5069295;28;20036;-72
2023/05/23 09:49:54;;;;;;;6.00;2.92;;;;;;;20.67;57.96;92917.31;5069671;28;20101;-72
2023/05/23 09:52:21;;;;;;;7.20;3.65;;;;;;;21.05;57.52;92921.81;5068636;28;20070;-72
2023/05/23 09:54:48;;;;;;;5.63;2.60;;;;;;;20.77;56.31;92932.06;5068994;28;20510;-72
2023/05/23 09:57:16;;;;;;;4.75;2.63;;;;;;;20.76;58.44;92910.44;5068888;28;20047;-72
2023/05/23 09:59:50;;;;;;;4.32;2.28;;;;;;;20.43;57.19;92918.88;5067953;28;20076;-72
2023/05/23 10:05:38;;;;;;;7.13;2.85;;;;;;;20.68;54.38;92918.88;5084422;28;20916;-71
2023/05/23 10:08:09;;;;;;;4.55;2.75;;;;;;;20.79;52.28;92920.28;5084695;28;20435;-71
2023/05/23 10:11:03;;;;;;;7.00;2.83;;;;;;;21.12;49.50;92918.88;5085049;28;20052;-71
2023/05/23 10:13:32;;;;;;;2.53;1.73;;;;;;;21.09;52.31;92909.75;5040171;28;20066;-71
2023/05/23 10:16:03;;;;;;;5.30;2.42;;;;;;;21.12;50.62;92919.66;5084724;28;20048;-71
2023/05/23 10:18:34;;;;;;;6.50;3.05;;;;;;;21.41;49.49;92923.16;5084687;28;20048;-71
2023/05/23 10:21:10;;;;;;;5.28;2.55;;;;;;;20.93;47.92;92912.56;5084317;28;20074;-71
2023/05/23 10:23:37;;;;;;;7.43;2.75;;;;;;;21.44;49.90;92915.50;5084606;28;20052;-71
2023/05/23 10:26:05;;;;;;;5.00;2.10;;;;;;;21.25;49.57;92907.72;5084687;28;20048;-71
2023/05/23 10:28:32;;;;;;;5.55;2.25;;;;;;;21.30;51.11;92905.00;5084222;28;20141;-71
2023/05/23 10:30:59;;;;;;;7.50;2.53;;;;;;;21.05;46.96;92904.31;5083791;28;20501;-71
2023/05/23 10:33:27;;;;;;;9.88;2.80;;;;;;;20.91;47.55;92912.09;5084206;28;20044;-71
2023/05/23 10:36:00;;;;;;;3.08;1.88;;;;;;;21.07;48.90;92910.03;5084061;28;20068;-71
2023/05/23 10:38:36;;;;;;;4.25;2.40;;;;;;;21.39;47.35;92905.16;5084597;28;20044;-71
2023/05/23 10:41:10;;;;;;;3.83;2.22;;;;;;;21.83;48.71;92905.00;5083599;28;20093;-71
2023/05/23 10:43:45;;;;;;;4.43;2.15;;;;;;;21.68;47.08;92911.25;5067558;28;20358;-71
2023/05/23 10:46:13;;;;;;;5.80;2.13;;;;;;;21.49;46.72;92904.97;5071317;28;20130;-71
2023/05/23 10:48:41;;;;;;;4.40;2.60;;;;;;;21.15;47.04;92900.03;5083129;28;20052;-71
2023/05/23 10:51:10;;;;;;;4.88;2.65;;;;;;;21.49;48.14;92904.22;5083875;28;20044;-71
2023/05/23 10:53:40;;;;;;;6.28;3.15;;;;;;;21.44;48.72;92894.59;5083722;28;20535;-71
2023/05/23 10:56:07;;;;;;;5.20;2.03;;;;;;;21.62;48.32;92903.47;5063369;28;20048;-71
2023/05/23 10:58:36;;;;;;;5.55;2.20;;;;;;;21.22;48.16;92897.81;5063054;28;20048;-71
2023/05/23 11:01:06;;;;;;;4.20;2.50;;;;;;;21.71;48.91;92895.03;5063285;28;20084;-71
2023/05/23 11:03:50;;;;;;;6.57;2.30;;;;;;;21.72;46.78;92910.41;5063222;28;20122;-71
2023/05/23 11:06:28;;;;;;;4.75;2.30;;;;;;;;;;5062924;28;20049;-71
2023/05/23 11:09:02;;;;;;;5.45;2.60;;;;;;;22.43;47.07;92901.59;5038457;28;20091;-72
2023/05/23 11:11:52;;;;;;;4.00;2.50;;;;;;;22.00;48.54;92894.75;5062593;28;20052;-71
2023/05/23 11:14:20;;;;;;;6.07;2.55;;;;;;;21.57;49.40;92897.56;5062839;28;20559;-71
2023/05/23 11:16:47;;;;;;;5.57;2.88;;;;;;;21.44;48.91;92897.22;5050326;28;20056;-71
2023/05/23 11:19:26;;;;;;;4.32;2.50;;;;;;;21.23;49.73;92875.88;5050061;28;20045;-71
2023/05/23 11:21:55;;;;;;;5.88;3.08;;;;;;;21.06;47.92;92892.81;5050141;28;20068;-71
2023/05/23 11:24:23;;;;;;;3.72;2.20;;;;;;;21.38;47.20;92887.16;5049528;28;20094;-71
2023/05/23 11:26:59;;;;;;;4.53;1.92;;;;;;;21.33;47.34;92888.78;5049363;28;20049;-71
2023/05/23 11:29:27;;;;;;;5.65;2.60;;;;;;;21.25;47.87;92886.81;5050057;28;20383;-71
2023/05/23 11:31:55;;;;;;;5.82;2.75;;;;;;;21.79;51.18;92885.75;5049640;28;20088;-71
2023/05/23 11:34:22;;;;;;;5.35;2.55;;;;;;;21.68;49.74;92893.72;5049649;28;20052;-71